Time;durP1;ratioP1;P1;durP2;ratioP2;P2;SDS_P1;SDS_P2;PMS_P1;PMS_P2;Temp;Humidity;BMP_temperature;BMP_pressure;BME280_temperature;BME280_humidity;BME280_pressure;Samples;Min_cycle;Max_cycle;Signal;HPM_P1;HPM_P2
2021/12/24 00:00:42;;;;;;;2.90;2.55;;;21.50;34.50;;;;;;5039161;28;20474;-50
2021/12/24 00:03:08;;;;;;;2.65;2.40;;;21.50;34.50;;;;;;5038874;28;20095;-58
2021/12/24 00:05:35;;;;;;;3.15;2.70;;;21.50;34.60;;;;;;5035179;28;20444;-53
2021/12/24 00:08:01;;;;;;;2.53;2.22;;;21.60;34.70;;;;;;5043390;28;20110;-50
2021/12/24 00:10:27;;;;;;;2.75;2.33;;;21.50;34.70;;;;;;5047941;28;20029;-48
2021/12/24 00:13:03;;;;;;;3.17;2.22;;;21.50;34.70;;;;;;5042577;28;20044;-55
2021/12/24 00:18:04;;;;;;;2.13;1.92;;;21.50;34.70;;;;;;5049489;28;20149;-54
2021/12/24 00:21:34;;;;;;;2.60;1.77;;;21.60;34.90;;;;;;5046196;28;20035;-51
2021/12/24 00:37:01;;;;;;;2.05;1.85;;;21.50;35.00;;;;;;5038888;28;20029;-50
2021/12/24 00:39:27;;;;;;;2.55;2.30;;;21.60;35.10;;;;;;5022459;28;20021;-47
2021/12/24 00:41:53;;;;;;;2.38;2.17;;;21.50;35.10;;;;;;5036865;28;20451;-48
2021/12/24 00:44:19;;;;;;;2.67;2.20;;;21.60;35.20;;;;;;5019404;28;20044;-54
2021/12/24 00:46:45;;;;;;;2.70;2.40;;;21.60;35.20;;;;;;5041691;28;20020;-57
2021/12/24 00:49:11;;;;;;;2.42;2.10;;;21.60;35.30;;;;;;5046782;28;20421;-53
2021/12/24 00:51:55;;;;;;;2.33;2.13;;;21.60;35.40;;;;;;5034291;28;20091;-53
2021/12/24 00:57:07;;;;;;;2.50;2.20;;;21.60;35.40;;;;;;5048969;28;20037;-53
2021/12/24 00:59:34;;;;;;;3.08;2.13;;;21.60;35.40;;;;;;5024534;28;20021;-55
2021/12/24 01:02:03;;;;;;;2.97;2.13;;;21.60;35.50;;;;;;5048713;28;20452;-55
2021/12/24 01:04:31;;;;;;;2.40;2.20;;;21.60;35.60;;;;;;5036431;28;20038;-52
2021/12/24 01:06:57;;;;;;;2.85;2.20;;;21.60;35.70;;;;;;5018453;28;20017;-53
2021/12/24 01:09:23;;;;;;;3.17;2.40;;;21.60;35.70;;;;;;5023181;28;20075;-54
2021/12/24 01:11:49;;;;;;;2.63;2.13;;;21.60;35.80;;;;;;5032993;28;20029;-50
2021/12/24 01:14:15;;;;;;;2.88;2.08;;;21.60;35.90;;;;;;5022168;28;20444;-55
2021/12/24 01:16:49;;;;;;;2.92;2.22;;;21.50;35.90;;;;;;5017524;28;20124;-51
2021/12/24 01:19:20;;;;;;;2.83;2.10;;;21.50;35.90;;;;;;5042973;28;20028;-50
2021/12/24 01:24:21;;;;;;;2.95;2.13;;;21.50;36.00;;;;;;5023442;28;20087;-50
2021/12/24 01:42:49;;;;;;;2.10;1.60;;;21.50;36.40;;;;;;5019510;28;20033;-55
2021/12/24 01:45:33;;;;;;;2.28;1.77;;;21.50;36.40;;;;;;5029076;28;20344;-53
2021/12/24 01:48:09;;;;;;;1.77;1.40;;;21.50;36.40;;;;;;5037165;28;20020;-54
2021/12/24 01:50:37;;;;;;;1.80;1.42;;;21.50;36.50;;;;;;5024692;28;20060;-56
2021/12/24 01:53:07;;;;;;;1.50;1.40;;;21.50;36.50;;;;;;5048205;28;20037;-53
2021/12/24 01:55:36;;;;;;;2.40;1.63;;;21.50;36.60;;;;;;5022059;28;20028;-55
2021/12/24 01:58:03;;;;;;;1.60;1.27;;;21.50;36.60;;;;;;5051870;28;20352;-50
2021/12/24 02:00:33;;;;;;;1.52;1.23;;;21.50;36.70;;;;;;5021796;28;20133;-53
2021/12/24 02:02:59;;;;;;;1.23;1.13;;;21.50;36.70;;;;;;5020248;28;20056;-50
2021/12/24 02:05:25;;;;;;;1.77;1.50;;;21.50;36.80;;;;;;5044542;28;20032;-52
2021/12/24 02:07:51;;;;;;;2.13;1.50;;;21.50;36.80;;;;;;5019201;28;20329;-49
2021/12/24 02:10:18;;;;;;;1.40;1.20;;;21.50;36.80;;;;;;5041294;28;20036;-52
2021/12/24 02:12:45;;;;;;;1.73;1.30;;;21.40;36.80;;;;;;5032188;28;20033;-53
2021/12/24 02:15:43;;;;;;;1.73;1.35;;;21.40;36.90;;;;;;5025015;28;20032;-49
2021/12/24 02:28:44;;;;;;;2.60;1.25;;;21.40;37.10;;;;;;5026173;28;20421;-53
2021/12/24 02:31:16;;;;;;;1.38;1.17;;;21.40;37.10;;;;;;5034875;28;20391;-52
2021/12/24 02:33:43;;;;;;;1.25;1.15;;;21.40;37.20;;;;;;5025565;28;20095;-56
2021/12/24 02:36:10;;;;;;;1.50;1.17;;;21.40;37.20;;;;;;5052883;28;20075;-51
2021/12/24 02:38:36;;;;;;;1.33;1.17;;;21.40;37.30;;;;;;5045497;28;20440;-48
2021/12/24 02:41:04;;;;;;;1.40;1.20;;;21.40;37.40;;;;;;5039979;28;20017;-47
2021/12/24 02:43:31;;;;;;;1.63;1.38;;;21.40;37.40;;;;;;5039053;28;20329;-50
2021/12/24 02:46:05;;;;;;;1.42;1.30;;;21.40;37.40;;;;;;5050535;28;20016;-49
2021/12/24 02:48:57;;;;;;;1.40;1.30;;;21.40;37.40;;;;;;5040322;28;20029;-52
2021/12/24 02:54:07;;;;;;;1.70;1.48;;;21.40;37.50;;;;;;5020783;28;20361;-50
2021/12/24 02:56:36;;;;;;;1.40;1.20;;;21.40;37.50;;;;;;5049550;28;20033;-51
2021/12/24 02:59:14;;;;;;;1.52;1.20;;;21.40;37.60;;;;;;5048609;28;20331;-55
2021/12/24 03:01:43;;;;;;;1.38;1.10;;;21.40;37.70;;;;;;5041728;28;20103;-50
2021/12/24 03:04:10;;;;;;;1.55;1.15;;;21.30;37.60;;;;;;5019792;28;20049;-49
2021/12/24 03:06:43;;;;;;;1.45;1.30;;;21.40;37.60;;;;;;5027844;28;20097;-53
2021/12/24 03:09:14;;;;;;;1.30;1.20;;;21.40;37.60;;;;;;5052717;28;20032;-50
2021/12/24 03:11:40;;;;;;;1.88;1.40;;;21.40;37.70;;;;;;5050143;28;20120;-47
2021/12/24 03:14:08;;;;;;;1.35;1.23;;;21.40;37.70;;;;;;5037702;28;20112;-53
2021/12/24 03:16:36;;;;;;;2.45;1.30;;;21.40;37.70;;;;;;5039159;28;20117;-53
2021/12/24 03:19:02;;;;;;;1.92;1.50;;;21.40;37.80;;;;;;5032757;28;20020;-50
2021/12/24 03:21:50;;;;;;;1.50;1.20;;;21.30;37.70;;;;;;5023191;28;20108;-53
2021/12/24 03:26:45;;;;;;;1.75;1.55;;;21.30;37.80;;;;;;5032837;28;20027;-53
2021/12/24 03:29:14;;;;;;;1.70;1.33;;;21.30;37.90;;;;;;5020396;28;20029;-51
2021/12/24 03:31:40;;;;;;;2.17;1.40;;;21.40;38.00;;;;;;5020988;28;20028;-51
2021/12/24 03:34:11;;;;;;;2.50;2.00;;;21.30;38.00;;;;;;5024745;28;20072;-51
2021/12/24 03:36:37;;;;;;;1.85;1.35;;;21.40;38.10;;;;;;5028460;28;20044;-51
2021/12/24 03:39:08;;;;;;;3.60;1.75;;;21.40;38.10;;;;;;5027524;28;20056;-50
2021/12/24 03:41:35;;;;;;;2.05;1.40;;;21.30;38.10;;;;;;5043122;28;20340;-52
2021/12/24 03:44:01;;;;;;;2.25;1.33;;;21.30;38.10;;;;;;5019205;28;20013;-50
2021/12/24 03:47:15;;;;;;;2.72;1.80;;;21.30;38.10;;;;;;5042873;28;20017;-49
2021/12/24 03:49:21;;;;;;;1.95;1.42;;;21.30;38.20;;;;;;5025985;28;20090;-58
2021/12/24 03:51:59;;;;;;;2.47;1.60;;;21.30;38.20;;;;;;5029840;28;20321;-49
2021/12/24 03:57:10;;;;;;;;;;;21.30;38.30;;;;;;5042452;28;20416;-53
2021/12/24 03:59:56;;;;;;;2.17;1.20;;;21.30;38.30;;;;;;5049367;28;19915;-50
2021/12/24 04:02:41;;;;;;;2.75;1.40;;;21.30;38.40;;;;;;5037318;28;20128;-47
2021/12/24 04:05:26;;;;;;;2.33;1.48;;;21.30;38.40;;;;;;5050323;28;20040;-52
2021/12/24 04:08:15;;;;;;;1.80;1.23;;;21.30;38.50;;;;;;4996172;28;20033;-52
2021/12/24 04:11:02;;;;;;;1.95;1.17;;;21.30;38.50;;;;;;5027869;28;20040;-50
2021/12/24 04:13:31;;;;;;;2.03;1.20;;;21.30;38.50;;;;;;5030782;28;20037;-52
2021/12/24 04:15:57;;;;;;;2.63;1.42;;;21.30;38.50;;;;;;5028500;28;20095;-52
2021/12/24 04:18:40;;;;;;;1.42;1.05;;;21.30;38.60;;;;;;5023639;28;20029;-50
2021/12/24 04:26:37;;;;;;;1.80;1.20;;;21.20;38.70;;;;;;5018853;28;20075;-53
2021/12/24 04:29:04;;;;;;;2.47;1.30;;;21.30;38.80;;;;;;5017669;28;20017;-52
2021/12/24 04:31:45;;;;;;;2.17;1.40;;;21.30;38.80;;;;;;5046268;28;20099;-52
2021/12/24 04:34:36;;;;;;;2.60;1.42;;;21.30;38.90;;;;;;5035947;28;20115;-52
2021/12/24 04:39:55;;;;;;;1.98;1.30;;;21.20;38.80;;;;;;5039375;28;20099;-51
2021/12/24 04:51:12;;;;;;;2.70;1.50;;;21.20;38.90;;;;;;5030882;28;20040;-51
2021/12/24 05:04:27;;;;;;;1.83;1.20;;;21.20;39.00;;;;;;4990838;28;1154912;-54
2021/12/24 05:07:02;;;;;;;2.17;1.42;;;21.20;39.00;;;;;;5021605;28;20041;-52
2021/12/24 05:09:31;;;;;;;2.70;1.30;;;21.20;39.00;;;;;;5018412;28;20039;-53
2021/12/24 05:11:57;;;;;;;1.73;1.35;;;21.20;39.00;;;;;;5018624;28;20316;-51
2021/12/24 05:14:22;;;;;;;3.03;1.30;;;21.20;39.00;;;;;;5037028;28;20094;-53
2021/12/24 05:17:15;;;;;;;2.30;1.20;;;21.20;39.00;;;;;;5025866;28;20043;-53
2021/12/24 05:23:09;;;;;;;2.10;1.33;;;21.20;39.10;;;;;;5026989;28;20049;-56
2021/12/24 05:25:41;;;;;;;1.83;1.05;;;21.20;39.10;;;;;;5035830;28;20045;-51
2021/12/24 05:28:07;;;;;;;1.50;1.10;;;21.20;39.10;;;;;;5025473;28;20339;-50
2021/12/24 05:30:33;;;;;;;2.92;1.17;;;21.20;39.10;;;;;;5034547;28;20025;-53
2021/12/24 05:32:59;;;;;;;1.88;1.40;;;21.20;39.10;;;;;;5037136;28;20033;-52
2021/12/24 05:35:24;;;;;;;1.75;1.15;;;21.20;39.10;;;;;;5025734;28;20432;-49
2021/12/24 05:37:50;;;;;;;2.15;1.17;;;21.20;39.10;;;;;;5034555;28;20032;-53
2021/12/24 05:40:18;;;;;;;1.95;1.10;;;21.20;39.20;;;;;;5020913;28;20025;-48
2021/12/24 05:42:43;;;;;;;2.40;1.10;;;21.20;39.20;;;;;;5022586;28;20020;-50
2021/12/24 05:45:10;;;;;;;1.95;1.30;;;21.20;39.20;;;;;;5019807;28;20448;-51
2021/12/24 05:47:55;;;;;;;2.25;1.25;;;21.20;39.20;;;;;;5039729;28;20075;-60
2021/12/24 05:50:25;;;;;;;2.38;1.40;;;21.20;39.20;;;;;;5019349;28;20536;-57
2021/12/24 05:53:09;;;;;;;5.03;1.50;;;21.20;39.20;;;;;;5040541;28;20059;-54
2021/12/24 05:55:51;;;;;;;2.50;1.10;;;21.20;39.20;;;;;;5022616;28;20120;-55
2021/12/24 05:58:21;;;;;;;1.60;1.02;;;21.20;39.20;;;;;;5031435;28;20028;-53
2021/12/24 06:00:48;;;;;;;2.65;1.23;;;21.20;39.20;;;;;;5031489;28;20035;-55
2021/12/24 06:03:15;;;;;;;2.75;1.27;;;21.20;39.20;;;;;;5015721;28;20042;-52
2021/12/24 06:05:42;;;;;;;2.55;1.27;;;21.20;39.20;;;;;;5013864;28;20038;-54
2021/12/24 06:08:08;;;;;;;1.42;0.80;;;21.20;39.20;;;;;;5000700;28;20454;-55
2021/12/24 06:10:34;;;;;;;3.40;1.33;;;21.20;39.20;;;;;;5007874;28;20370;-52
2021/12/24 06:13:01;;;;;;;2.28;0.95;;;21.20;39.20;;;;;;5004708;28;20030;-51
2021/12/24 06:15:27;;;;;;;1.92;0.95;;;21.20;39.20;;;;;;4999127;28;20030;-58
2021/12/24 06:17:57;;;;;;;1.95;0.90;;;21.20;39.20;;;;;;4997350;28;20022;-52
2021/12/24 06:20:24;;;;;;;1.95;1.00;;;21.20;39.20;;;;;;5009972;28;20046;-56
2021/12/24 06:22:51;;;;;;;2.33;1.20;;;21.20;39.20;;;;;;5000421;28;20311;-53
2021/12/24 06:25:18;;;;;;;2.03;0.98;;;21.20;39.20;;;;;;5007800;28;20021;-52
2021/12/24 06:27:47;;;;;;;2.08;0.80;;;21.10;39.10;;;;;;5008711;28;20330;-53
2021/12/24 06:30:14;;;;;;;3.33;1.23;;;21.10;39.10;;;;;;5007144;28;20022;-54
2021/12/24 06:32:40;;;;;;;2.30;0.85;;;21.10;39.10;;;;;;5013766;28;20462;-58
2021/12/24 06:35:09;;;;;;;2.72;1.15;;;21.10;39.00;;;;;;5012205;28;20029;-53
2021/12/24 06:37:36;;;;;;;3.25;1.25;;;21.20;39.10;;;;;;5014313;28;20478;-51
2021/12/24 06:40:03;;;;;;;2.58;1.00;;;21.20;39.10;;;;;;5001026;28;20026;-56
2021/12/24 06:42:29;;;;;;;1.80;0.73;;;21.10;39.00;;;;;;5000168;28;20034;-54
2021/12/24 06:44:55;;;;;;;2.03;1.00;;;21.10;39.00;;;;;;5003856;28;20033;-51
2021/12/24 06:47:21;;;;;;;2.42;0.82;;;21.10;39.00;;;;;;4996873;28;20093;-54
2021/12/24 06:49:47;;;;;;;1.33;0.82;;;21.20;39.00;;;;;;4999479;28;20033;-54
2021/12/24 06:52:12;;;;;;;1.60;0.80;;;21.20;39.00;;;;;;4997893;28;20036;-55
2021/12/24 06:54:38;;;;;;;1.98;0.85;;;21.10;39.00;;;;;;5008096;28;20133;-48
2021/12/24 06:57:15;;;;;;;1.98;0.98;;;21.10;38.90;;;;;;5005407;28;20037;-51
2021/12/24 06:59:42;;;;;;;2.28;0.75;;;21.10;38.90;;;;;;5025756;28;20111;-52
2021/12/24 07:02:08;;;;;;;1.30;0.80;;;21.10;38.90;;;;;;4996408;28;20417;-50
2021/12/24 07:04:34;;;;;;;2.50;0.80;;;21.10;38.90;;;;;;5041250;28;21745;-55
2021/12/24 07:07:00;;;;;;;2.13;0.80;;;21.10;38.90;;;;;;5048958;28;20086;-48
2021/12/24 07:09:26;;;;;;;2.45;1.05;;;21.10;38.90;;;;;;5043564;28;20032;-52
2021/12/24 07:11:51;;;;;;;2.47;0.95;;;21.10;38.90;;;;;;5027304;28;20033;-53
2021/12/24 07:14:17;;;;;;;2.83;1.02;;;21.10;38.90;;;;;;5019008;28;20474;-52
2021/12/24 07:16:43;;;;;;;2.28;0.93;;;21.10;38.90;;;;;;5050187;28;20083;-50
2021/12/24 07:19:09;;;;;;;1.70;0.88;;;21.10;38.90;;;;;;5038671;28;20053;-50
2021/12/24 07:21:35;;;;;;;2.28;1.00;;;21.10;38.90;;;;;;5025205;28;20035;-54
2021/12/24 07:24:06;;;;;;;2.10;0.90;;;21.10;38.90;;;;;;5039685;28;20041;-47
2021/12/24 07:26:32;;;;;;;1.30;0.60;;;21.10;38.90;;;;;;5052008;28;20063;-54
2021/12/24 07:28:57;;;;;;;2.58;1.10;;;21.10;38.90;;;;;;5051969;28;20452;-51
2021/12/24 07:31:23;;;;;;;1.88;0.80;;;21.10;38.90;;;;;;5038434;28;20490;-53
2021/12/24 07:33:49;;;;;;;2.10;0.90;;;21.10;38.90;;;;;;5036331;28;20094;-50
2021/12/24 07:36:15;;;;;;;1.98;0.98;;;21.10;38.80;;;;;;5048274;28;20020;-50
2021/12/24 07:38:41;;;;;;;2.30;0.93;;;21.10;38.90;;;;;;5038120;28;20468;-55
2021/12/24 07:41:07;;;;;;;2.80;1.20;;;21.10;38.90;;;;;;5046530;28;20052;-51
2021/12/24 07:43:33;;;;;;;2.17;0.90;;;21.10;38.80;;;;;;5047925;28;20051;-51
2021/12/24 07:45:59;;;;;;;3.15;1.10;;;21.10;38.90;;;;;;5039012;28;20055;-53
2021/12/24 07:48:30;;;;;;;2.60;0.98;;;21.10;38.80;;;;;;5038772;28;20040;-56
2021/12/24 07:53:24;;;;;;;4.47;1.13;;;21.10;38.90;;;;;;5048511;28;20178;-54
2021/12/24 07:55:53;;;;;;;2.13;1.05;;;21.00;39.10;;;;;;5049341;28;20048;-52
2021/12/24 07:58:19;;;;;;;1.90;1.10;;;21.00;39.20;;;;;;5038482;28;20029;-55
2021/12/24 08:00:47;;;;;;;1.63;0.88;;;21.00;39.30;;;;;;5039741;28;20022;-53
2021/12/24 08:03:14;;;;;;;1.83;0.90;;;21.00;39.30;;;;;;5041456;28;20037;-52
2021/12/24 08:05:41;;;;;;;2.47;0.75;;;21.10;39.90;;;;;;5040455;28;20074;-54
2021/12/24 08:08:09;;;;;;;1.90;0.98;;;21.20;39.20;;;;;;5043279;28;20028;-59
2021/12/24 08:10:35;;;;;;;2.08;0.90;;;21.20;39.00;;;;;;5049814;28;20031;-52
2021/12/24 08:13:03;;;;;;;1.75;0.85;;;21.30;39.00;;;;;;5045422;28;20111;-53
2021/12/24 08:15:29;;;;;;;2.38;0.88;;;21.40;38.90;;;;;;5048352;28;20020;-56
2021/12/24 08:17:56;;;;;;;2.50;1.10;;;21.50;38.80;;;;;;5047192;28;20606;-57
2021/12/24 08:20:25;;;;;;;2.42;0.93;;;21.50;38.70;;;;;;5049846;28;20023;-53
2021/12/24 08:22:53;;;;;;;3.35;1.10;;;21.60;38.60;;;;;;5047839;28;20021;-50
2021/12/24 08:25:20;;;;;;;2.80;1.00;;;21.70;38.60;;;;;;5052948;28;20412;-51
2021/12/24 08:27:47;;;;;;;2.92;0.75;;;21.70;38.50;;;;;;5052547;28;20021;-54
2021/12/24 08:30:13;;;;;;;2.85;1.02;;;21.80;38.50;;;;;;5052431;28;20340;-57
2021/12/24 08:32:41;;;;;;;2.53;0.85;;;21.80;38.40;;;;;;5047398;28;20104;-54
2021/12/24 08:35:11;;;;;;;2.35;0.90;;;21.80;38.40;;;;;;5048210;28;20029;-55
2021/12/24 08:37:38;;;;;;;2.50;0.80;;;21.90;38.30;;;;;;5046188;28;20074;-52
2021/12/24 08:40:05;;;;;;;3.25;0.90;;;22.00;38.30;;;;;;5048060;28;20436;-54
2021/12/24 08:42:31;;;;;;;2.35;1.00;;;22.00;38.20;;;;;;5048425;28;20451;-52
2021/12/24 08:44:57;;;;;;;2.42;1.00;;;22.10;38.80;;;;;;5049260;28;20025;-50
2021/12/24 08:47:24;;;;;;;2.25;0.70;;;22.20;38.00;;;;;;5046576;28;20056;-51
2021/12/24 08:49:49;;;;;;;2.28;0.80;;;22.20;37.90;;;;;;5053417;28;20059;-50
2021/12/24 08:52:15;;;;;;;2.65;1.00;;;22.30;37.90;;;;;;5045980;28;20052;-55
2021/12/24 08:54:42;;;;;;;2.88;1.00;;;22.30;37.80;;;;;;5046466;28;20364;-54
2021/12/24 08:57:08;;;;;;;3.85;1.20;;;22.40;37.80;;;;;;5049847;28;20360;-54
2021/12/24 08:59:34;;;;;;;2.22;1.05;;;22.40;37.70;;;;;;5051851;28;20024;-49
2021/12/24 09:02:01;;;;;;;2.08;1.10;;;22.50;37.70;;;;;;5050678;28;20119;-52
2021/12/24 09:04:27;;;;;;;2.65;0.88;;;22.50;37.60;;;;;;5051530;28;20099;-54
2021/12/24 09:06:53;;;;;;;2.92;1.05;;;22.50;37.60;;;;;;5051958;28;20352;-51
2021/12/24 09:09:19;;;;;;;2.42;0.85;;;22.60;37.60;;;;;;5054763;28;20070;-55
2021/12/24 09:11:47;;;;;;;2.10;0.88;;;22.60;37.50;;;;;;5046872;28;20035;-53
2021/12/24 09:14:17;;;;;;;2.70;1.00;;;22.60;37.40;;;;;;5045689;28;20048;-51
2021/12/24 09:16:46;;;;;;;2.40;0.90;;;22.70;37.40;;;;;;5046465;28;20056;-53
2021/12/24 09:19:16;;;;;;;2.83;1.00;;;22.70;37.30;;;;;;5048660;28;20028;-52
2021/12/24 09:21:41;;;;;;;3.03;1.08;;;22.70;37.30;;;;;;5048440;28;20032;-52
2021/12/24 09:24:08;;;;;;;3.92;0.80;;;22.80;37.20;;;;;;5049029;28;20024;-53
2021/12/24 09:26:37;;;;;;;3.63;1.20;;;22.80;37.20;;;;;;5044105;28;20393;-53
2021/12/24 09:29:06;;;;;;;2.95;1.15;;;22.90;37.80;;;;;;5044133;28;20028;-51
2021/12/24 09:31:32;;;;;;;3.40;0.95;;;22.90;37.00;;;;;;5030050;28;20045;-52
2021/12/24 09:33:58;;;;;;;2.05;0.90;;;22.90;37.00;;;;;;5044933;28;20052;-55
2021/12/24 09:36:25;;;;;;;3.90;1.55;;;22.90;36.90;;;;;;5048648;28;20017;-54
2021/12/24 09:38:54;;;;;;;3.88;1.63;;;23.00;37.00;;;;;;5046437;28;20041;-56
2021/12/24 09:41:22;;;;;;;2.03;0.82;;;23.00;36.90;;;;;;5045119;28;20025;-51
2021/12/24 09:43:49;;;;;;;3.58;1.33;;;23.10;37.00;;;;;;5029944;28;20021;-53
2021/12/24 09:46:15;;;;;;;2.28;1.00;;;23.10;37.00;;;;;;5028701;28;20336;-56
2021/12/24 09:48:41;;;;;;;3.75;1.08;;;23.10;36.90;;;;;;5048367;28;20124;-51
2021/12/24 09:51:08;;;;;;;3.50;1.30;;;23.20;37.00;;;;;;5032806;28;20219;-51
2021/12/24 09:53:36;;;;;;;2.47;1.17;;;23.20;36.90;;;;;;5053077;28;20052;-52
2021/12/24 09:56:04;;;;;;;1.55;0.85;;;23.20;36.90;;;;;;5056300;28;20039;-56
2021/12/24 09:58:30;;;;;;;2.72;1.00;;;23.20;36.90;;;;;;5054949;28;20029;-50
2021/12/24 10:00:56;;;;;;;2.63;1.20;;;23.20;36.90;;;;;;5055382;28;20040;-48
2021/12/24 10:03:58;;;;;;;4.10;1.13;;;23.30;36.80;;;;;;5054864;28;20103;-49
2021/12/24 10:06:24;;;;;;;2.03;1.20;;;23.30;36.70;;;;;;5039790;28;20043;-51
2021/12/24 10:09:00;;;;;;;2.60;0.90;;;23.20;36.80;;;;;;5057017;28;20033;-54
2021/12/24 10:11:29;;;;;;;3.50;1.40;;;23.30;36.70;;;;;;5055613;28;20087;-56
2021/12/24 10:14:04;;;;;;;3.55;1.15;;;23.30;36.80;;;;;;5055172;28;20040;-53
2021/12/24 10:16:30;;;;;;;2.70;0.98;;;23.30;36.70;;;;;;5055571;28;20092;-48
2021/12/24 10:19:00;;;;;;;3.05;1.00;;;23.20;36.70;;;;;;5054763;28;20108;-55
2021/12/24 10:21:32;;;;;;;3.22;1.10;;;23.20;36.70;;;;;;5052464;28;20057;-50
2021/12/24 10:24:00;;;;;;;2.13;1.10;;;23.20;36.80;;;;;;5054921;28;20021;-56
2021/12/24 10:26:31;;;;;;;3.45;1.17;;;23.10;36.80;;;;;;5054734;28;20432;-54
2021/12/24 10:29:20;;;;;;;2.50;1.30;;;23.10;36.90;;;;;;5053194;28;20017;-51
2021/12/24 10:31:54;;;;;;;3.22;1.20;;;23.10;36.90;;;;;;5053380;28;20037;-50
2021/12/24 10:34:32;;;;;;;3.35;1.27;;;23.00;37.00;;;;;;5054337;28;20094;-55
2021/12/24 10:37:18;;;;;;;3.65;1.60;;;23.00;37.10;;;;;;5054652;28;20024;-54
2021/12/24 10:39:55;;;;;;;3.50;1.35;;;22.90;37.20;;;;;;5054247;28;20048;-52
2021/12/24 10:42:35;;;;;;;2.25;1.10;;;22.80;37.20;;;;;;5054465;28;20033;-52
2021/12/24 10:45:10;;;;;;;2.80;1.13;;;22.80;37.40;;;;;;5053548;28;20017;-54
2021/12/24 10:47:40;;;;;;;3.40;1.30;;;22.70;37.40;;;;;;5053151;28;20332;-53
2021/12/24 10:55:36;;;;;;;3.80;1.13;;;22.70;37.60;;;;;;5054377;28;20333;-54
2021/12/24 10:58:04;;;;;;;3.17;1.30;;;22.70;37.70;;;;;;5044508;28;20467;-57
2021/12/24 11:00:32;;;;;;;4.22;1.23;;;22.60;37.60;;;;;;5036549;28;20025;-53
2021/12/24 11:03:04;;;;;;;2.67;1.33;;;22.60;37.70;;;;;;5053466;28;20048;-53
2021/12/24 11:05:42;;;;;;;2.97;1.13;;;22.60;37.70;;;;;;5049586;28;20046;-52
2021/12/24 11:08:17;;;;;;;2.38;1.05;;;22.60;37.70;;;;;;5053489;28;20028;-55
2021/12/24 11:10:47;;;;;;;2.97;1.33;;;22.60;37.70;;;;;;5051610;28;20013;-53
2021/12/24 11:13:32;;;;;;;2.58;1.10;;;22.70;37.80;;;;;;5053975;28;20428;-55
2021/12/24 11:16:02;;;;;;;4.53;1.50;;;22.60;37.80;;;;;;5053918;28;20455;-54
2021/12/24 11:18:44;;;;;;;5.13;1.40;;;22.70;38.80;;;;;;5050657;28;20110;-58
2021/12/24 11:21:17;;;;;;;2.85;1.55;;;22.70;39.50;;;;;;5053404;28;20020;-54
2021/12/24 11:23:43;;;;;;;4.60;1.40;;;22.70;39.80;;;;;;5046793;28;20036;-60
2021/12/24 11:26:10;;;;;;;5.80;1.70;;;22.80;39.80;;;;;;5054204;28;20025;-54
2021/12/24 11:28:37;;;;;;;3.95;1.55;;;22.80;39.70;;;;;;5052956;28;20594;-50
2021/12/24 11:31:18;;;;;;;4.13;1.63;;;22.80;39.50;;;;;;5056103;28;20052;-55
2021/12/24 11:33:45;;;;;;;2.83;1.23;;;22.90;39.40;;;;;;5046642;28;20358;-54
2021/12/24 11:36:14;;;;;;;3.67;1.58;;;22.80;39.30;;;;;;5035891;28;20097;-52
2021/12/24 11:39:06;;;;;;;3.45;1.40;;;22.80;39.10;;;;;;5045754;28;20059;-54
2021/12/24 11:41:32;;;;;;;3.10;1.27;;;22.90;39.00;;;;;;5035735;28;20029;-55
2021/12/24 11:44:01;;;;;;;3.90;1.70;;;22.90;39.00;;;;;;5054121;28;20052;-58
2021/12/24 11:46:27;;;;;;;3.33;1.23;;;22.90;38.90;;;;;;5055115;28;20420;-52
2021/12/24 11:48:55;;;;;;;4.15;1.70;;;22.90;38.80;;;;;;5060100;28;20016;-57
2021/12/24 11:51:29;;;;;;;3.70;1.40;;;22.80;38.70;;;;;;5054931;28;20323;-53
2021/12/24 11:54:00;;;;;;;;;;;22.80;38.80;;;;;;5041440;28;20045;-51
2021/12/24 11:56:26;;;;;;;3.90;1.38;;;22.80;38.80;;;;;;5044858;28;19905;-53
2021/12/24 11:58:58;;;;;;;2.63;1.40;;;22.80;38.90;;;;;;5054721;28;20025;-52
2021/12/24 12:01:27;;;;;;;4.88;1.90;;;22.80;38.90;;;;;;5047177;28;20029;-53
2021/12/24 12:03:56;;;;;;;2.72;1.25;;;22.80;38.90;;;;;;5054101;28;20328;-55
2021/12/24 12:06:32;;;;;;;2.45;1.17;;;22.80;38.80;;;;;;5046766;28;20028;-57
2021/12/24 12:09:10;;;;;;;4.20;0.93;;;22.80;38.80;;;;;;5051518;28;20044;-55
2021/12/24 12:11:39;;;;;;;3.65;1.27;;;22.80;38.80;;;;;;5045526;28;20061;-53
2021/12/24 12:14:11;;;;;;;3.67;1.52;;;22.90;39.00;;;;;;5017629;28;20041;-55
2021/12/24 12:16:42;;;;;;;6.20;1.80;;;22.90;39.00;;;;;;5048510;28;20089;-54
2021/12/24 12:19:25;;;;;;;4.20;1.45;;;22.90;39.10;;;;;;5044063;28;20183;-59
2021/12/24 12:22:18;;;;;;;5.97;1.80;;;22.90;39.10;;;;;;5037808;28;20033;-53
2021/12/24 12:24:57;;;;;;;3.03;1.35;;;22.90;39.10;;;;;;5029263;28;20025;-58
2021/12/24 12:27:44;;;;;;;2.80;1.13;;;22.90;39.10;;;;;;5046127;28;20037;-58
2021/12/24 12:30:28;;;;;;;3.42;1.15;;;23.00;39.10;;;;;;5035638;28;20403;-57
2021/12/24 12:33:11;;;;;;;3.55;1.50;;;23.00;39.00;;;;;;5034821;28;20037;-56
2021/12/24 12:36:03;;;;;;;3.03;1.20;;;23.00;38.90;;;;;;5042272;28;20017;-55
2021/12/24 12:38:40;;;;;;;2.22;1.13;;;23.10;38.90;;;;;;5054620;28;20044;-55
2021/12/24 12:41:38;;;;;;;2.13;1.00;;;23.10;38.90;;;;;;5052636;28;20432;-56
2021/12/24 12:44:11;;;;;;;3.75;1.42;;;23.20;38.80;;;;;;5054363;28;20444;-56
2021/12/24 12:46:40;;;;;;;1.55;0.80;;;23.20;38.80;;;;;;5035730;28;20432;-54
2021/12/24 12:49:09;;;;;;;3.10;1.23;;;23.20;38.70;;;;;;5054825;28;20393;-54
2021/12/24 12:52:00;;;;;;;3.85;1.20;;;23.20;38.60;;;;;;5053451;28;20029;-53
2021/12/24 12:54:38;;;;;;;3.17;1.10;;;23.30;38.50;;;;;;5054871;28;20033;-59
2021/12/24 12:57:34;;;;;;;3.28;1.10;;;23.30;38.50;;;;;;5052365;28;20029;-58
2021/12/24 13:00:21;;;;;;;2.72;0.90;;;23.30;38.40;;;;;;5042291;28;20029;-60
2021/12/24 13:05:40;;;;;;;1.90;1.15;;;23.30;38.30;;;;;;5048387;28;20035;-58
2021/12/24 13:08:17;;;;;;;3.05;1.10;;;23.30;38.80;;;;;;5052307;28;20452;-54
2021/12/24 13:11:08;;;;;;;2.45;1.08;;;23.30;38.10;;;;;;5033587;28;20079;-55
2021/12/24 13:13:56;;;;;;;2.83;1.02;;;23.30;38.10;;;;;;5048617;28;20017;-59
2021/12/24 13:16:46;;;;;;;3.25;1.50;;;23.30;38.20;;;;;;5018749;28;20041;-60
2021/12/24 13:24:46;;;;;;;2.53;1.00;;;23.20;38.30;;;;;;5043464;28;20029;-59
2021/12/24 13:27:13;;;;;;;2.15;1.20;;;23.20;38.20;;;;;;5047409;28;20048;-59
2021/12/24 13:29:39;;;;;;;2.33;1.05;;;23.20;38.20;;;;;;5047875;28;20033;-56
2021/12/24 13:32:05;;;;;;;3.65;1.00;;;23.20;38.20;;;;;;5053528;28;20025;-58
2021/12/24 13:34:31;;;;;;;2.80;1.20;;;23.20;38.20;;;;;;5034336;28;20392;-57
2021/12/24 13:37:01;;;;;;;2.47;1.27;;;23.10;38.20;;;;;;5055309;28;20024;-59
2021/12/24 13:39:28;;;;;;;2.25;1.10;;;23.10;38.10;;;;;;5044228;28;20751;-54
2021/12/24 13:42:07;;;;;;;3.17;1.10;;;23.10;38.20;;;;;;5051272;28;20390;-50
2021/12/24 13:44:35;;;;;;;3.25;1.20;;;23.10;38.20;;;;;;5057228;28;20037;-53
2021/12/24 13:47:11;;;;;;;3.50;1.38;;;23.00;38.20;;;;;;5044469;28;20057;-54
2021/12/24 13:55:32;;;;;;;3.05;1.27;;;23.00;38.30;;;;;;5040492;28;20110;-54
2021/12/24 13:58:15;;;;;;;2.25;1.15;;;22.90;38.40;;;;;;5042343;28;20012;-53
2021/12/24 14:00:53;;;;;;;2.00;1.02;;;23.00;38.40;;;;;;5048262;28;20103;-56
2021/12/24 14:03:24;;;;;;;2.22;0.90;;;22.90;38.40;;;;;;5051602;28;20036;-56
2021/12/24 14:05:53;;;;;;;3.00;1.20;;;22.90;38.40;;;;;;5053866;28;20021;-55
2021/12/24 14:08:22;;;;;;;2.30;1.13;;;22.90;39.00;;;;;;5055910;28;20463;-60
2021/12/24 14:10:59;;;;;;;2.10;0.95;;;22.90;38.40;;;;;;5053028;28;20401;-52
2021/12/24 14:13:28;;;;;;;2.55;1.08;;;22.90;38.40;;;;;;5053272;28;20033;-58
2021/12/24 14:16:17;;;;;;;2.53;1.20;;;22.90;38.40;;;;;;5045380;28;20032;-52
2021/12/24 14:18:49;;;;;;;1.95;1.10;;;22.90;38.40;;;;;;5051300;28;20025;-52
2021/12/24 14:24:13;;;;;;;3.50;1.30;;;22.90;38.30;;;;;;5055674;28;20079;-59
2021/12/24 14:26:51;;;;;;;3.30;1.38;;;22.90;38.40;;;;;;5056199;28;20037;-59
2021/12/24 14:29:45;;;;;;;2.88;1.60;;;22.90;38.40;;;;;;5055631;28;20025;-59
2021/12/24 14:32:13;;;;;;;3.10;1.45;;;22.90;38.40;;;;;;5050506;28;20040;-55
2021/12/24 14:34:51;;;;;;;2.47;1.15;;;22.90;38.40;;;;;;5047435;28;20047;-55
2021/12/24 14:37:22;;;;;;;2.42;1.13;;;22.90;38.40;;;;;;5056364;28;20044;-57
2021/12/24 14:40:09;;;;;;;3.10;1.30;;;22.90;38.30;;;;;;5040859;28;20052;-58
2021/12/24 14:43:09;;;;;;;2.47;1.20;;;22.90;38.30;;;;;;5054183;28;20507;-53
2021/12/24 14:45:37;;;;;;;2.28;1.33;;;22.90;38.30;;;;;;5042197;28;20048;-60
2021/12/24 14:48:08;;;;;;;2.75;1.48;;;22.90;38.40;;;;;;5042688;28;20025;-59
2021/12/24 14:50:41;;;;;;;2.45;1.08;;;22.90;38.80;;;;;;5042080;28;20321;-60
2021/12/24 14:53:18;;;;;;;2.75;1.40;;;22.90;38.90;;;;;;5051392;28;20021;-57
2021/12/24 14:55:48;;;;;;;3.15;1.35;;;22.90;39.00;;;;;;5056514;28;20106;-58
2021/12/24 14:58:30;;;;;;;3.05;1.40;;;22.90;39.00;;;;;;5041684;28;20104;-55
2021/12/24 15:00:57;;;;;;;2.72;1.40;;;22.90;39.00;;;;;;5035447;28;20516;-54